createdAt,value
2023-02-27T00:00:19.996Z,3.93
2023-02-27T00:02:51.926Z,3.37
2023-02-27T00:05:22.411Z,3.13
2023-02-27T00:07:50.113Z,3.60
2023-02-27T00:10:18.527Z,3.70
2023-02-27T00:12:46.173Z,3.33
2023-02-27T00:15:15.068Z,3.23
2023-02-27T00:17:43.099Z,3.23
2023-02-27T00:20:16.157Z,3.53
2023-02-27T00:22:44.969Z,4.03
2023-02-27T00:25:13.623Z,3.40
2023-02-27T00:27:41.557Z,3.43
2023-02-27T00:30:11.682Z,3.93
2023-02-27T00:32:39.447Z,3.50
2023-02-27T00:35:09.165Z,3.50
2023-02-27T00:37:38.764Z,3.60
2023-02-27T00:40:07.688Z,3.60
2023-02-27T00:42:35.743Z,3.13
2023-02-27T00:45:03.945Z,3.50
2023-02-27T00:47:31.571Z,3.10
2023-02-27T00:49:59.186Z,3.80
2023-02-27T00:52:27.460Z,3.60
2023-02-27T00:54:56.411Z,3.57
2023-02-27T00:57:24.371Z,3.40
2023-02-27T00:59:51.996Z,3.87
2023-02-27T01:02:19.931Z,3.53
2023-02-27T01:04:47.517Z,3.87
2023-02-27T01:07:15.228Z,3.57
2023-02-27T01:09:42.874Z,4.50
2023-02-27T01:12:11.886Z,3.60
2023-02-27T01:14:39.490Z,4.20
2023-02-27T01:17:07.104Z,3.90
2023-02-27T01:19:34.699Z,3.63
2023-02-27T01:22:02.371Z,3.57
2023-02-27T01:24:30.014Z,3.83
2023-02-27T01:26:57.623Z,4.90
2023-02-27T01:29:26.963Z,5.50
2023-02-27T01:31:54.644Z,5.70
2023-02-27T01:34:22.304Z,5.87
2023-02-27T01:36:49.952Z,5.40
2023-02-27T01:39:17.613Z,5.67
2023-02-27T01:41:45.423Z,5.73
2023-02-27T01:44:14.999Z,5.50
2023-02-27T01:46:44.257Z,5.30
2023-02-27T01:49:16.637Z,5.47
2023-02-27T01:51:48.721Z,5.30
2023-02-27T01:54:19.835Z,5.60
2023-02-27T01:56:49.016Z,4.80
2023-02-27T01:59:17.433Z,4.27
2023-02-27T02:01:46.832Z,4.53
2023-02-27T02:04:20.723Z,4.57
2023-02-27T02:06:51.611Z,4.20
2023-02-27T02:09:21.013Z,4.27
2023-02-27T02:11:50.005Z,3.83
2023-02-27T02:14:17.702Z,4.10
2023-02-27T02:17:00.049Z,4.10
2023-02-27T02:19:56.888Z,3.70
2023-02-27T02:22:59.900Z,4.00
2023-02-27T02:26:05.906Z,3.73
2023-02-27T02:29:11.163Z,4.33
2023-02-27T02:32:07.081Z,4.30
2023-02-27T02:35:07.255Z,4.73
2023-02-27T02:38:17.328Z,4.23
2023-02-27T02:40:53.452Z,4.30
2023-02-27T02:43:27.705Z,4.10
2023-02-27T02:46:03.591Z,4.20
2023-02-27T02:48:37.498Z,3.60
2023-02-27T02:51:12.934Z,4.70
2023-02-27T02:53:48.573Z,4.17
2023-02-27T02:56:23.612Z,3.87
2023-02-27T02:59:00.590Z,3.77
2023-02-27T03:01:34.477Z,4.33
2023-02-27T03:04:08.179Z,3.20
2023-02-27T03:06:39.756Z,3.70
2023-02-27T03:09:13.106Z,4.07
2023-02-27T03:11:46.855Z,3.20
2023-02-27T03:14:20.181Z,3.90
2023-02-27T03:16:51.206Z,3.13
2023-02-27T03:19:22.164Z,3.40
2023-02-27T03:21:54.484Z,3.47
2023-02-27T03:24:26.813Z,3.37
2023-02-27T03:27:03.267Z,3.20
2023-02-27T03:29:39.700Z,3.07
2023-02-27T03:32:14.265Z,3.23
2023-02-27T03:34:43.488Z,3.40
2023-02-27T03:37:22.371Z,3.20
2023-02-27T03:39:52.669Z,3.67
2023-02-27T03:42:30.179Z,3.90
2023-02-27T03:45:05.889Z,3.07
2023-02-27T03:47:35.283Z,3.23
2023-02-27T03:50:02.984Z,3.60
2023-02-27T03:52:32.436Z,3.30
2023-02-27T03:55:05.184Z,3.23
2023-02-27T03:57:37.674Z,3.10
2023-02-27T04:00:07.559Z,3.37
2023-02-27T04:02:38.046Z,3.13
2023-02-27T04:05:06.094Z,3.33
2023-02-27T04:07:38.699Z,3.33
2023-02-27T04:10:17.658Z,3.50
2023-02-27T04:13:12.888Z,3.67
2023-02-27T04:16:00.664Z,3.30
2023-02-27T04:18:44.968Z,3.47
2023-02-27T04:21:18.134Z,3.00
2023-02-27T04:23:56.264Z,3.20
2023-02-27T04:26:31.523Z,3.40
2023-02-27T04:29:07.016Z,3.93
2023-02-27T04:31:46.723Z,4.10
2023-02-27T04:34:21.754Z,3.50
2023-02-27T04:36:58.058Z,3.40
2023-02-27T04:39:28.829Z,3.90
2023-02-27T04:42:02.301Z,3.57
2023-02-27T04:44:36.126Z,3.30
2023-02-27T04:47:08.308Z,3.63
2023-02-27T04:49:38.671Z,4.13
2023-02-27T04:52:11.404Z,3.53
2023-02-27T04:54:43.250Z,4.07
2023-02-27T04:57:16.569Z,3.70
2023-02-27T04:59:48.608Z,3.63
2023-02-27T05:02:24.654Z,4.03
2023-02-27T05:04:56.743Z,4.33
2023-02-27T05:07:27.634Z,3.80
2023-02-27T05:09:59.897Z,3.80
2023-02-27T05:12:34.761Z,4.07
2023-02-27T05:15:10.019Z,4.00
2023-02-27T05:17:43.520Z,4.07
2023-02-27T05:20:12.725Z,3.80
2023-02-27T05:22:48.497Z,3.67
2023-02-27T05:25:24.766Z,5.20
2023-02-27T05:27:57.819Z,4.23
2023-02-27T05:30:33.120Z,4.10
2023-02-27T05:33:06.965Z,3.93
2023-02-27T05:35:39.273Z,3.60
2023-02-27T05:38:12.711Z,4.00
2023-02-27T05:40:45.399Z,4.37
2023-02-27T05:43:18.970Z,3.77
2023-02-27T05:45:51.224Z,3.83
2023-02-27T05:48:23.962Z,3.93
2023-02-27T05:50:53.892Z,4.83
2023-02-27T05:53:23.160Z,4.07
2023-02-27T05:55:53.644Z,4.70
2023-02-27T05:58:25.839Z,4.20
2023-02-27T06:00:58.501Z,4.70
2023-02-27T06:03:26.645Z,4.43
2023-02-27T06:05:55.810Z,4.13
2023-02-27T06:08:24.932Z,4.63
2023-02-27T06:10:52.688Z,4.00
2023-02-27T06:13:20.312Z,4.00
2023-02-27T06:15:47.928Z,4.20
2023-02-27T06:18:18.004Z,4.27
2023-02-27T06:20:46.510Z,4.27
2023-02-27T06:23:14.384Z,3.87
2023-02-27T06:25:42.442Z,3.83
2023-02-27T06:28:10.943Z,4.77
2023-02-27T06:30:39.282Z,4.20
2023-02-27T06:33:07.008Z,4.47
2023-02-27T06:35:36.109Z,4.33
2023-02-27T06:38:04.976Z,4.00
2023-02-27T06:40:32.563Z,4.00
2023-02-27T06:43:00.168Z,4.40
2023-02-27T06:45:27.769Z,4.70
2023-02-27T06:47:55.350Z,4.17
2023-02-27T06:50:22.979Z,4.40
2023-02-27T06:52:52.027Z,4.13
2023-02-27T06:55:20.937Z,4.47
2023-02-27T06:57:48.928Z,4.70
2023-02-27T07:00:17.997Z,4.73
2023-02-27T07:02:45.618Z,5.00
2023-02-27T07:05:13.214Z,5.17
2023-02-27T07:07:41.036Z,5.37
2023-02-27T07:10:12.711Z,5.60
2023-02-27T07:12:40.587Z,5.00
2023-02-27T07:15:09.083Z,5.20
2023-02-27T07:17:36.791Z,4.97
2023-02-27T07:20:05.395Z,4.23
2023-02-27T07:22:33.041Z,3.67
2023-02-27T07:25:00.662Z,3.90
2023-02-27T07:27:29.712Z,3.87
2023-02-27T07:29:57.333Z,4.10
2023-02-27T07:32:24.919Z,3.80
2023-02-27T07:34:52.489Z,4.17
2023-02-27T07:37:20.651Z,4.10
2023-02-27T07:39:48.226Z,4.10
2023-02-27T07:42:16.629Z,3.93
2023-02-27T07:44:45.607Z,3.90
2023-02-27T07:47:13.224Z,3.80
2023-02-27T07:49:40.812Z,3.90
2023-02-27T07:52:08.404Z,3.67
2023-02-27T07:54:37.670Z,4.13
2023-02-27T07:57:05.546Z,3.67
2023-02-27T07:59:33.568Z,3.80
2023-02-27T08:02:02.541Z,4.20
2023-02-27T08:04:30.222Z,3.83
2023-02-27T08:06:57.932Z,3.67
2023-02-27T08:09:25.553Z,3.93
2023-02-27T08:11:53.143Z,4.77
2023-02-27T08:14:20.772Z,4.47
2023-02-27T08:16:48.411Z,4.53
2023-02-27T08:19:17.364Z,4.57
2023-02-27T08:21:44.952Z,4.45
2023-02-27T08:24:12.556Z,5.20
2023-02-27T08:26:40.124Z,5.32
2023-02-27T08:29:07.737Z,4.95
2023-02-27T08:31:35.517Z,5.38
2023-02-27T08:34:10.111Z,5.80
2023-02-27T08:36:40.395Z,5.25
2023-02-27T08:39:08.974Z,4.60
2023-02-27T08:41:36.748Z,5.25
2023-02-27T08:44:04.893Z,4.50
2023-02-27T08:46:32.515Z,5.35
2023-02-27T08:49:00.162Z,4.30
2023-02-27T08:51:28.135Z,4.65
2023-02-27T08:53:59.024Z,4.93
2023-02-27T08:56:27.316Z,6.35
2023-02-27T08:58:55.572Z,12.52
2023-02-27T09:01:23.819Z,10.95
2023-02-27T09:03:51.511Z,5.38
2023-02-27T09:06:19.112Z,6.07
2023-02-27T09:08:46.720Z,5.45
2023-02-27T09:11:15.663Z,5.15
2023-02-27T09:13:43.259Z,5.40
2023-02-27T09:16:11.257Z,5.55
2023-02-27T09:18:38.893Z,5.50
2023-02-27T09:21:06.952Z,5.60
2023-02-27T09:23:34.591Z,5.00
2023-02-27T09:26:02.170Z,5.57
2023-02-27T09:28:31.114Z,5.40
2023-02-27T09:31:01.865Z,6.10
2023-02-27T09:33:29.711Z,5.30
2023-02-27T09:35:57.358Z,5.87
2023-02-27T09:38:24.975Z,5.63
2023-02-27T09:40:55.044Z,5.03
2023-02-27T09:43:28.036Z,5.20
2023-02-27T09:45:58.729Z,5.37
2023-02-27T09:48:32.203Z,3.50
2023-02-27T09:51:00.832Z,2.83
2023-02-27T09:53:31.406Z,3.60
2023-02-27T09:56:07.192Z,3.53
2023-02-27T09:58:46.314Z,3.20
2023-02-27T10:01:24.132Z,2.87
2023-02-27T10:04:19.667Z,3.10
2023-02-27T10:06:52.036Z,3.53
2023-02-27T10:09:32.127Z,3.23
2023-02-27T10:12:12.491Z,2.20
2023-02-27T10:14:44.399Z,3.00
2023-02-27T10:17:19.413Z,3.00
2023-02-27T10:19:49.286Z,3.10
2023-02-27T10:22:24.515Z,2.93
2023-02-27T10:24:58.820Z,2.77
2023-02-27T10:27:26.801Z,2.60
2023-02-27T10:30:01.041Z,2.33
2023-02-27T10:32:33.799Z,2.60
2023-02-27T10:35:09.879Z,2.00
2023-02-27T10:37:40.990Z,2.37
2023-02-27T10:40:16.079Z,2.40
2023-02-27T10:42:45.103Z,2.30
2023-02-27T10:45:15.696Z,2.27
2023-02-27T10:47:45.249Z,1.93
2023-02-27T10:50:28.305Z,2.20
2023-02-27T10:52:58.265Z,2.20
2023-02-27T10:55:28.675Z,2.40
2023-02-27T10:57:58.642Z,2.30
2023-02-27T11:00:39.410Z,2.03
2023-02-27T11:03:19.580Z,2.23
2023-02-27T11:05:56.625Z,2.10
2023-02-27T11:08:26.298Z,2.53
2023-02-27T11:10:56.965Z,2.60
2023-02-27T11:13:26.982Z,2.03
2023-02-27T11:16:10.256Z,2.47
2023-02-27T11:18:41.018Z,2.50
2023-02-27T11:21:22.654Z,2.20
2023-02-27T11:23:53.174Z,2.40
2023-02-27T11:26:24.427Z,2.50
2023-02-27T11:29:07.197Z,2.77
2023-02-27T11:31:36.389Z,2.60
2023-02-27T11:34:08.239Z,2.50
2023-02-27T11:36:40.600Z,2.60
2023-02-27T11:39:08.535Z,2.50
2023-02-27T11:41:37.312Z,2.43
2023-02-27T11:44:05.969Z,1.90
2023-02-27T11:46:47.588Z,2.30
2023-02-27T11:49:31.150Z,2.50
2023-02-27T11:52:08.343Z,2.67
2023-02-27T11:54:40.637Z,2.57
2023-02-27T11:57:15.923Z,2.77
2023-02-27T11:59:49.032Z,2.70
2023-02-27T12:02:23.387Z,2.40
2023-02-27T12:04:56.189Z,2.50
2023-02-27T12:07:28.913Z,2.53
2023-02-27T12:10:04.555Z,2.30
2023-02-27T12:12:37.824Z,2.60
2023-02-27T12:15:16.151Z,2.63
2023-02-27T12:17:47.546Z,2.50
2023-02-27T12:20:29.440Z,2.70
2023-02-27T12:22:57.168Z,2.67
2023-02-27T12:25:36.025Z,3.03
2023-02-27T12:28:10.191Z,2.60
2023-02-27T12:30:43.554Z,2.40
2023-02-27T12:33:18.577Z,2.60
2023-02-27T12:35:55.587Z,2.70
2023-02-27T12:38:24.574Z,2.63
2023-02-27T12:41:06.039Z,2.20
2023-02-27T12:43:45.642Z,2.60
2023-02-27T12:46:33.043Z,2.50
2023-02-27T12:49:15.698Z,2.60
2023-02-27T12:51:56.120Z,2.50
2023-02-27T12:54:34.743Z,2.83
2023-02-27T12:57:16.359Z,2.50
2023-02-27T13:00:06.376Z,2.37
2023-02-27T13:02:46.942Z,2.47
2023-02-27T13:05:25.554Z,2.40
2023-02-27T13:08:01.007Z,2.37
2023-02-27T13:10:35.897Z,2.47
2023-02-27T13:13:09.749Z,2.27
2023-02-27T13:15:43.321Z,2.50
2023-02-27T13:18:29.095Z,2.10
2023-02-27T13:21:03.286Z,2.47
2023-02-27T13:23:37.607Z,2.70
2023-02-27T13:26:11.519Z,2.47
2023-02-27T13:28:40.294Z,2.57
2023-02-27T13:31:11.015Z,2.40
2023-02-27T13:33:47.687Z,2.63
2023-02-27T13:36:21.874Z,1.97
2023-02-27T13:38:55.199Z,2.93
2023-02-27T13:41:39.516Z,2.70
2023-02-27T13:44:40.291Z,2.73
2023-02-27T13:47:40.344Z,2.90
2023-02-27T13:50:41.180Z,2.93
2023-02-27T13:53:18.654Z,2.47
2023-02-27T13:55:47.796Z,2.70
2023-02-27T13:58:19.183Z,3.20
2023-02-27T14:00:57.785Z,3.50
2023-02-27T14:03:28.131Z,2.90
2023-02-27T14:05:59.394Z,2.80
2023-02-27T14:08:28.923Z,2.87
2023-02-27T14:11:02.720Z,3.03
2023-02-27T14:14:06.410Z,2.73
2023-02-27T14:16:59.764Z,3.00
2023-02-27T14:19:49.181Z,2.33
2023-02-27T14:22:37.660Z,2.57
2023-02-27T14:25:19.627Z,2.20
2023-02-27T14:27:54.659Z,2.00
2023-02-27T14:30:31.091Z,2.13
2023-02-27T14:33:02.460Z,2.10
2023-02-27T14:35:31.115Z,2.43
2023-02-27T14:38:04.807Z,2.53
2023-02-27T14:40:39.066Z,2.27
2023-02-27T14:43:15.942Z,2.77
2023-02-27T14:45:43.584Z,2.20
2023-02-27T14:48:11.794Z,2.50
2023-02-27T14:50:41.672Z,2.07
2023-02-27T14:53:23.787Z,1.97
2023-02-27T14:55:55.568Z,2.57
2023-02-27T14:58:25.350Z,2.53
2023-02-27T15:01:03.154Z,3.13
2023-02-27T15:03:36.521Z,2.30
2023-02-27T15:06:13.624Z,2.50
2023-02-27T15:08:43.467Z,2.00
2023-02-27T15:11:15.614Z,2.20
2023-02-27T15:13:45.729Z,1.93
2023-02-27T15:16:31.940Z,2.33
2023-02-27T15:19:01.934Z,2.10
2023-02-27T15:21:34.651Z,2.53
2023-02-27T15:24:04.100Z,2.20
2023-02-27T15:26:36.160Z,3.07
2023-02-27T15:29:06.279Z,2.00
2023-02-27T15:31:34.294Z,2.20
2023-02-27T15:34:03.740Z,1.80
2023-02-27T15:36:34.179Z,1.77
2023-02-27T15:39:16.387Z,1.80
2023-02-27T15:41:46.667Z,1.90
2023-02-27T15:44:17.018Z,1.93
2023-02-27T15:46:46.272Z,1.80
2023-02-27T15:49:18.772Z,1.97
2023-02-27T15:51:49.254Z,2.03
2023-02-27T15:54:16.917Z,1.93
2023-02-27T15:56:45.260Z,1.80
2023-02-27T15:59:18.789Z,2.03
2023-02-27T16:01:47.027Z,1.80
2023-02-27T16:04:23.809Z,2.10
2023-02-27T16:06:59.144Z,1.90
2023-02-27T16:09:31.202Z,2.17
2023-02-27T16:12:13.297Z,2.07
2023-02-27T16:14:45.855Z,1.90
2023-02-27T16:17:29.321Z,2.10
2023-02-27T16:20:00.746Z,2.03
2023-02-27T16:22:30.380Z,2.50
2023-02-27T16:25:09.518Z,2.10
2023-02-27T16:27:37.281Z,2.07
2023-02-27T16:30:12.733Z,2.77
2023-02-27T16:32:43.979Z,2.10
2023-02-27T16:35:19.224Z,1.90
2023-02-27T16:37:47.946Z,2.50
2023-02-27T16:40:18.092Z,2.40
2023-02-27T16:42:47.111Z,2.13
2023-02-27T16:45:18.293Z,2.40
2023-02-27T16:47:48.816Z,2.60
2023-02-27T16:50:21.809Z,3.40
2023-02-27T16:52:49.488Z,3.87
2023-02-27T16:55:17.327Z,3.40
2023-02-27T16:57:45.023Z,3.20
2023-02-27T17:00:17.013Z,2.53
2023-02-27T17:02:44.719Z,2.27
2023-02-27T17:05:12.344Z,2.50
2023-02-27T17:07:39.967Z,2.67
2023-02-27T17:10:08.022Z,2.60
2023-02-27T17:12:36.676Z,2.87
2023-02-27T17:15:04.516Z,2.87
2023-02-27T17:17:33.428Z,3.83
2023-02-27T17:20:01.856Z,3.60
2023-02-27T17:22:29.439Z,3.47
2023-02-27T17:24:57.030Z,3.30
2023-02-27T17:27:24.648Z,4.90
2023-02-27T17:29:52.438Z,5.07
2023-02-27T17:32:20.114Z,7.63
2023-02-27T17:34:49.174Z,22.13
2023-02-27T17:37:16.774Z,4.17
2023-02-27T17:39:44.350Z,2.47
2023-02-27T17:42:16.419Z,10.57
2023-02-27T17:44:45.131Z,14.70
2023-02-27T17:47:12.967Z,6.43
2023-02-27T17:49:40.611Z,3.37
2023-02-27T17:52:10.005Z,5.07
2023-02-27T17:54:38.015Z,14.63
2023-02-27T17:57:06.690Z,16.03
2023-02-27T17:59:34.698Z,26.80
2023-02-27T18:02:02.288Z,62.57
2023-02-27T18:04:29.973Z,22.57
2023-02-27T18:06:57.788Z,4.40
2023-02-27T18:09:26.793Z,3.60
2023-02-27T18:11:54.426Z,3.27
2023-02-27T18:14:22.278Z,2.87
2023-02-27T18:16:50.098Z,4.37
2023-02-27T18:19:18.286Z,3.40
2023-02-27T18:21:47.037Z,3.67
2023-02-27T18:24:16.934Z,2.73
2023-02-27T18:26:45.928Z,3.00
2023-02-27T18:29:16.116Z,3.13
2023-02-27T18:31:45.494Z,2.80
2023-02-27T18:34:13.912Z,2.70
2023-02-27T18:36:41.590Z,2.60
2023-02-27T18:39:09.221Z,3.50
2023-02-27T18:41:37.080Z,4.50
2023-02-27T18:44:07.612Z,2.60
2023-02-27T18:46:36.110Z,3.03
2023-02-27T18:49:03.995Z,2.67
2023-02-27T18:51:31.720Z,3.10
2023-02-27T18:54:00.693Z,3.97
2023-02-27T18:56:32.766Z,3.70
2023-02-27T18:59:05.026Z,7.83
2023-02-27T19:01:36.379Z,4.10
2023-02-27T19:04:05.885Z,10.87
2023-02-27T19:06:34.785Z,8.73
2023-02-27T19:09:02.443Z,6.60
2023-02-27T19:11:33.124Z,4.40
2023-02-27T19:14:01.535Z,4.30
2023-02-27T19:16:29.589Z,4.13
2023-02-27T19:18:59.828Z,7.33
2023-02-27T19:21:28.367Z,12.47
2023-02-27T19:23:56.297Z,17.80
2023-02-27T19:26:25.206Z,8.50
2023-02-27T19:28:53.750Z,6.23
2023-02-27T19:31:23.373Z,4.40
2023-02-27T19:33:50.986Z,4.50
2023-02-27T19:36:21.683Z,3.93
2023-02-27T19:38:49.652Z,3.90
2023-02-27T19:41:18.378Z,3.53
2023-02-27T19:43:47.229Z,4.30
2023-02-27T19:46:17.355Z,3.60
2023-02-27T19:48:45.836Z,4.40
2023-02-27T19:51:15.410Z,3.70
2023-02-27T19:53:48.255Z,4.40
2023-02-27T19:56:18.665Z,3.87
2023-02-27T19:58:47.693Z,3.80
2023-02-27T20:01:21.502Z,3.70
2023-02-27T20:03:49.197Z,4.07
2023-02-27T20:06:18.625Z,3.50
2023-02-27T20:08:47.604Z,3.43
2023-02-27T20:11:17.325Z,4.73
2023-02-27T20:13:44.992Z,4.10
2023-02-27T20:16:14.782Z,3.77
2023-02-27T20:18:43.602Z,4.60
2023-02-27T20:21:13.758Z,3.37
2023-02-27T20:23:43.263Z,3.13
2023-02-27T20:26:18.044Z,15.00
2023-02-27T20:28:46.416Z,7.77
2023-02-27T20:31:15.727Z,4.60
2023-02-27T20:33:43.678Z,4.10
2023-02-27T20:36:12.749Z,3.60
2023-02-27T20:38:41.143Z,4.23
2023-02-27T20:41:10.385Z,3.83
2023-02-27T20:43:39.833Z,3.50
2023-02-27T20:46:10.277Z,4.13
2023-02-27T20:48:38.310Z,3.63
2023-02-27T20:51:08.023Z,3.83
2023-02-27T20:53:36.995Z,4.43
2023-02-27T20:56:05.931Z,4.97
2023-02-27T20:58:34.272Z,4.23
2023-02-27T21:01:04.279Z,5.43
2023-02-27T21:03:38.414Z,5.83
2023-02-27T21:06:07.393Z,5.00
2023-02-27T21:08:36.455Z,5.23
2023-02-27T21:11:08.410Z,4.53
2023-02-27T21:13:36.971Z,4.07
2023-02-27T21:16:07.565Z,4.00
2023-02-27T21:18:35.223Z,4.13
2023-02-27T21:21:04.443Z,3.20
2023-02-27T21:23:32.179Z,4.13
2023-02-27T21:25:59.800Z,4.23
2023-02-27T21:28:27.576Z,4.47
2023-02-27T21:30:55.164Z,3.90
2023-02-27T21:33:24.289Z,4.10
2023-02-27T21:35:51.911Z,4.20
2023-02-27T21:38:19.498Z,4.40
2023-02-27T21:40:47.083Z,4.00
2023-02-27T21:43:14.654Z,3.67
2023-02-27T21:45:47.457Z,3.37
2023-02-27T21:48:16.097Z,3.50
2023-02-27T21:50:45.094Z,3.23
2023-02-27T21:53:12.667Z,3.20
2023-02-27T21:55:40.277Z,2.97
2023-02-27T21:58:10.427Z,3.80
2023-02-27T22:00:38.067Z,3.53
2023-02-27T22:03:06.203Z,3.80
2023-02-27T22:05:33.797Z,3.50
2023-02-27T22:08:02.777Z,3.17
2023-02-27T22:10:30.412Z,3.00
2023-02-27T22:12:58.015Z,3.40
2023-02-27T22:15:25.654Z,2.87
2023-02-27T22:17:54.674Z,3.20
2023-02-27T22:20:22.263Z,3.00
2023-02-27T22:22:49.912Z,3.30
2023-02-27T22:25:19.064Z,3.17
2023-02-27T22:27:46.699Z,3.13
2023-02-27T22:30:14.971Z,2.90
2023-02-27T22:32:42.574Z,3.60
2023-02-27T22:35:10.478Z,3.20
2023-02-27T22:37:38.072Z,3.43
2023-02-27T22:40:06.475Z,2.73
2023-02-27T22:42:35.427Z,3.27
2023-02-27T22:45:03.027Z,3.50
2023-02-27T22:47:30.648Z,3.63
2023-02-27T22:49:58.516Z,4.40
2023-02-27T22:52:26.174Z,4.33
2023-02-27T22:54:53.925Z,3.90
2023-02-27T22:57:22.828Z,4.03
2023-02-27T22:59:52.089Z,3.40
2023-02-27T23:02:19.897Z,4.07
2023-02-27T23:04:47.511Z,4.00
2023-02-27T23:07:15.096Z,3.30
2023-02-27T23:09:43.802Z,3.63
2023-02-27T23:12:11.448Z,3.13
2023-02-27T23:14:39.241Z,3.53
2023-02-27T23:17:08.229Z,3.47
2023-02-27T23:19:36.466Z,3.40
2023-02-27T23:22:04.075Z,3.13
2023-02-27T23:24:31.706Z,3.03
2023-02-27T23:27:00.160Z,3.70
2023-02-27T23:29:27.756Z,3.13
2023-02-27T23:31:55.454Z,3.33
2023-02-27T23:34:24.516Z,3.40
2023-02-27T23:36:52.120Z,3.40
2023-02-27T23:39:20.561Z,3.10
2023-02-27T23:41:48.226Z,3.53
2023-02-27T23:44:15.908Z,2.90
2023-02-27T23:46:43.635Z,2.70
2023-02-27T23:49:12.205Z,3.20
2023-02-27T23:51:41.208Z,3.17
2023-02-27T23:54:08.830Z,3.10
2023-02-27T23:56:36.453Z,3.17
2023-02-27T23:59:06.913Z,2.63
